Queen Of Coquitlam — CZ8058 — position and weather

sailwx.info

Track history (hours):
 
Tides and Currents Weather Stations Pressure Air Temp Water Temp Dewpoint Dewpoint Depression Visibility Wind Speed Wind Dir Waves Ship Positions

Queen Of Coquitlam

Last reported at 2018-Jun-18 03:37 UTC. Time now 2018-Jun-18 13:41 UTC.
Position N 49°17' W 123°41'.

Length 139 m; draft 4 m.

Type: Passenger vessel. MMSI: 316001249.

Date/timePositionNaut miles runAvg speedWind from/ knotsBaromVisibWave heightAir tempDewpointWater temp
2018-Jun-18 03:37N 49°17' W 123°41'520.3
2018-Jun-18 03:23N 49°18' W 123°34'8 4.7
2018-Jun-18 01:42N 49°19' W 123°22'520.1
2018-Jun-18 01:29N 49°17' W 123°29'2 0.8
2018-Jun-17 22:54N 49°18' W 123°32'9 2.3
2018-Jun-17 18:57N 49°22' W 123°19'919.6
2018-Jun-17 18:30N 49°17' W 123°31'9 0.4
2018-Jun-16 16:35N 49°25' W 123°23'220.0
2018-Jun-16 16:28N 49°25' W 123°27'1 0.6
2018-Jun-16 14:45N 49°26' W 123°28'0 0.1
2018-Jun-16 13:59N 49°26' W 123°28'9 0.8
2018-Jun-16 03:15N 49°18' W 123°33'520.1
2018-Jun-16 02:59N 49°19' W 123°25'5 1.2
2018-Jun-15 23:00N 49°22' W 123°19'9 3.1
2018-Jun-15 20:05N 49°18' W 123°32'720.5
2018-Jun-15 19:45N 49°20' W 123°22'2 1.2
2018-Jun-15 18:25N 49°21' W 123°20'13 0.9
2018-Jun-15 04:02N 49°16' W 123°39'419.7
2018-Jun-15 03:49N 49°18' W 123°33'719.9
2018-Jun-15 03:27N 49°20' W 123°22'1 0.1
2018-Jun-14 22:52N 49°20' W 123°21'25 2.0
2018-Jun-14 10:25N 49°12' W 123°57'0 0.0
2018-Jun-14 09:53N 49°12' W 123°57'0 0.0
2018-Jun-14 08:34N 49°12' W 123°57'13 5.1
2018-Jun-14 06:07N 49°17' W 123°40'719.5
2018-Jun-14 05:45N 49°18' W 123°29'519.6
2018-Jun-14 05:30N 49°20' W 123°22'3 3.2
2018-Jun-14 04:28N 49°22' W 123°19'10 3.5
2018-Jun-14 01:29N 49°18' W 123°33'9 5.9
2018-Jun-13 23:56N 49°21' W 123°20'10 3.6
2018-Jun-13 21:06N 49°18' W 123°34'9 5.1
2018-Jun-13 19:22N 49°20' W 123°21'4 1.4
2018-Jun-13 16:20N 49°19' W 123°28'7 5.1
2018-Jun-13 15:01N 49°22' W 123°19'019.5
2018-Jun-13 15:00N 49°22' W 123°19'13 1.5
2018-Jun-13 06:05N 49°17' W 123°38'419.4
2018-Jun-13 05:52N 49°18' W 123°32'719.4
2018-Jun-13 05:30N 49°20' W 123°22'0 0.1
2018-Jun-13 04:20N 49°20' W 123°22'9 3.4
2018-Jun-13 01:34N 49°18' W 123°36'319.4
2018-Jun-13 01:26N 49°18' W 123°32'8 5.6
2018-Jun-12 23:57N 49°21' W 123°20'8 2.8
2018-Jun-12 21:01N 49°18' W 123°32'220.1
2018-Jun-12 20:54N 49°19' W 123°28'6 3.9
2018-Jun-12 19:27N 49°21' W 123°20'7 2.4
2018-Jun-12 16:26N 49°18' W 123°31'8 5.9
2018-Jun-12 15:00N 49°22' W 123°19'9 1.0
2018-Jun-12 05:53N 49°19' W 123°32'8 5.0
2018-Jun-12 04:21N 49°20' W 123°21'819.2
2018-Jun-12 03:57N 49°17' W 123°32'3 1.4
2018-Jun-12 01:34N 49°17' W 123°37'319.6
2018-Jun-12 01:24N 49°18' W 123°32'819.3
2018-Jun-12 01:00N 49°21' W 123°20'1 1.4
2018-Jun-11 23:57N 49°22' W 123°19'919.2
2018-Jun-11 23:30N 49°17' W 123°31'1 0.5
2018-Jun-11 21:02N 49°18' W 123°32'119.8
2018-Jun-11 20:59N 49°18' W 123°31'6 4.0
2018-Jun-11 19:23N 49°20' W 123°21'819.6
2018-Jun-11 19:00N 49°17' W 123°32'6 2.5
2018-Jun-11 16:44N 49°17' W 123°40'619.9
2018-Jun-11 16:27N 49°18' W 123°32'9 6.3
2018-Jun-11 15:00N 49°22' W 123°19'1018.4
2018-Jun-11 14:28N 49°17' W 123°32'1 0.1
2018-Jun-11 03:24N 49°18' W 123°31'818.9
2018-Jun-11 02:58N 49°21' W 123°20'1 1.4
2018-Jun-11 02:01N 49°22' W 123°18'116.8
2018-Jun-11 01:58N 49°22' W 123°19'12 4.0
2018-Jun-10 23:04N 49°18' W 123°36'620.4
2018-Jun-10 22:46N 49°19' W 123°27'4 1.0
2018-Jun-10 18:52N 49°20' W 123°21'5 0.1
2018-Jun-09 03:07N 49°19' W 123°29'319.2
2018-Jun-09 02:57N 49°19' W 123°25'6 1.5
2018-Jun-08 23:09N 49°23' W 123°18'319.1
2018-Jun-08 23:00N 49°20' W 123°20'9 3.2
2018-Jun-08 20:13N 49°18' W 123°34'520.7
2018-Jun-08 19:59N 49°19' W 123°27'6 3.9
2018-Jun-08 18:31N 49°22' W 123°19'118.9
2018-Jun-08 18:29N 49°21' W 123°20'  
Track history (hours):
 
Tides and Currents Weather Stations Pressure Air Temp Water Temp Dewpoint Dewpoint Depression Visibility Wind Speed Wind Dir Waves Ship Positions

Queen Of Coquitlam

Last reported at 2018-Jun-18 03:37 UTC. Time now 2018-Jun-18 13:41 UTC.
Position N 49°17' W 123°41'.

Length 139 m; draft 4 m.

Type: Passenger vessel. MMSI: 316001249.

Date/timePositionNaut miles runAvg speedWind from/ knotsBaromVisibWave heightAir tempDewpointWater temp
2018-Jun-18 03:37N 49°17' W 123°41'520.3
2018-Jun-18 03:23N 49°18' W 123°34'8 4.7
2018-Jun-18 01:42N 49°19' W 123°22'520.1
2018-Jun-18 01:29N 49°17' W 123°29'2 0.8
2018-Jun-17 22:54N 49°18' W 123°32'9 2.3
2018-Jun-17 18:57N 49°22' W 123°19'919.6
2018-Jun-17 18:30N 49°17' W 123°31'9 0.4
2018-Jun-16 16:35N 49°25' W 123°23'220.0
2018-Jun-16 16:28N 49°25' W 123°27'1 0.6
2018-Jun-16 14:45N 49°26' W 123°28'0 0.1
2018-Jun-16 13:59N 49°26' W 123°28'9 0.8
2018-Jun-16 03:15N 49°18' W 123°33'520.1
2018-Jun-16 02:59N 49°19' W 123°25'5 1.2
2018-Jun-15 23:00N 49°22' W 123°19'9 3.1
2018-Jun-15 20:05N 49°18' W 123°32'720.5
2018-Jun-15 19:45N 49°20' W 123°22'2 1.2
2018-Jun-15 18:25N 49°21' W 123°20'13 0.9
2018-Jun-15 04:02N 49°16' W 123°39'419.7
2018-Jun-15 03:49N 49°18' W 123°33'719.9
2018-Jun-15 03:27N 49°20' W 123°22'1 0.1
2018-Jun-14 22:52N 49°20' W 123°21'25 2.0
2018-Jun-14 10:25N 49°12' W 123°57'0 0.0
2018-Jun-14 09:53N 49°12' W 123°57'0 0.0
2018-Jun-14 08:34N 49°12' W 123°57'13 5.1
2018-Jun-14 06:07N 49°17' W 123°40'719.5
2018-Jun-14 05:45N 49°18' W 123°29'519.6
2018-Jun-14 05:30N 49°20' W 123°22'3 3.2
2018-Jun-14 04:28N 49°22' W 123°19'10 3.5
2018-Jun-14 01:29N 49°18' W 123°33'9 5.9
2018-Jun-13 23:56N 49°21' W 123°20'10 3.6
2018-Jun-13 21:06N 49°18' W 123°34'9 5.1
2018-Jun-13 19:22N 49°20' W 123°21'4 1.4
2018-Jun-13 16:20N 49°19' W 123°28'7 5.1
2018-Jun-13 15:01N 49°22' W 123°19'019.5
2018-Jun-13 15:00N 49°22' W 123°19'13 1.5
2018-Jun-13 06:05N 49°17' W 123°38'419.4
2018-Jun-13 05:52N 49°18' W 123°32'719.4
2018-Jun-13 05:30N 49°20' W 123°22'0 0.1
2018-Jun-13 04:20N 49°20' W 123°22'9 3.4
2018-Jun-13 01:34N 49°18' W 123°36'319.4
2018-Jun-13 01:26N 49°18' W 123°32'8 5.6
2018-Jun-12 23:57N 49°21' W 123°20'8 2.8
2018-Jun-12 21:01N 49°18' W 123°32'220.1
2018-Jun-12 20:54N 49°19' W 123°28'6 3.9
2018-Jun-12 19:27N 49°21' W 123°20'7 2.4
2018-Jun-12 16:26N 49°18' W 123°31'8 5.9
2018-Jun-12 15:00N 49°22' W 123°19'9 1.0
2018-Jun-12 05:53N 49°19' W 123°32'8 5.0
2018-Jun-12 04:21N 49°20' W 123°21'819.2
2018-Jun-12 03:57N 49°17' W 123°32'3 1.4
2018-Jun-12 01:34N 49°17' W 123°37'319.6
2018-Jun-12 01:24N 49°18' W 123°32'819.3
2018-Jun-12 01:00N 49°21' W 123°20'1 1.4
2018-Jun-11 23:57N 49°22' W 123°19'919.2
2018-Jun-11 23:30N 49°17' W 123°31'1 0.5
2018-Jun-11 21:02N 49°18' W 123°32'119.8
2018-Jun-11 20:59N 49°18' W 123°31'6 4.0
2018-Jun-11 19:23N 49°20' W 123°21'819.6
2018-Jun-11 19:00N 49°17' W 123°32'6 2.5
2018-Jun-11 16:44N 49°17' W 123°40'619.9
2018-Jun-11 16:27N 49°18' W 123°32'9 6.3
2018-Jun-11 15:00N 49°22' W 123°19'1018.4
2018-Jun-11 14:28N 49°17' W 123°32'1 0.1
2018-Jun-11 03:24N 49°18' W 123°31'818.9
2018-Jun-11 02:58N 49°21' W 123°20'1 1.4
2018-Jun-11 02:01N 49°22' W 123°18'116.8
2018-Jun-11 01:58N 49°22' W 123°19'12 4.0
2018-Jun-10 23:04N 49°18' W 123°36'620.4
2018-Jun-10 22:46N 49°19' W 123°27'4 1.0
2018-Jun-10 18:52N 49°20' W 123°21'5 0.1
2018-Jun-09 03:07N 49°19' W 123°29'319.2
2018-Jun-09 02:57N 49°19' W 123°25'6 1.5
2018-Jun-08 23:09N 49°23' W 123°18'319.1
2018-Jun-08 23:00N 49°20' W 123°20'9 3.2
2018-Jun-08 20:13N 49°18' W 123°34'520.7
2018-Jun-08 19:59N 49°19' W 123°27'6 3.9
2018-Jun-08 18:31N 49°22' W 123°19'118.9
2018-Jun-08 18:29N 49°21' W 123°20'  

Dump ship's entire track history